Time;durP1;ratioP1;P1;durP2;ratioP2;P2;SDS_P1;SDS_P2;PMS_P1;PMS_P2;Temp;Humidity;BMP_temperature;BMP_pressure;BME280_temperature;BME280_humidity;BME280_pressure;Samples;Min_cycle;Max_cycle;Signal;HPM_P1;HPM_P2
2022/03/06 00:01:54;;;;;;;51.80;19.25;;;;;;;2.63;76.35;102394.31;5046827;28;20513;-47
2022/03/06 00:04:20;;;;;;;54.78;18.67;;;;;;;2.56;76.42;102393.00;5034945;28;20073;-45
2022/03/06 00:06:45;;;;;;;52.67;18.63;;;;;;;2.52;76.78;102400.28;5033201;28;20124;-47
2022/03/06 00:09:11;;;;;;;41.13;17.27;;;;;;;2.49;76.72;102394.31;5033580;28;20037;-45
2022/03/06 00:11:36;;;;;;;42.72;18.35;;;;;;;2.50;76.59;102393.34;5033681;28;20068;-46
2022/03/06 00:14:01;;;;;;;48.40;18.45;;;;;;;2.54;76.73;102402.88;5034202;28;20127;-45
2022/03/06 00:16:27;;;;;;;48.05;18.75;;;;;;;2.47;76.25;102399.69;5028907;28;20532;-46
2022/03/06 00:18:52;;;;;;;48.00;17.90;;;;;;;2.47;76.79;102401.50;5021714;28;20100;-47
2022/03/06 00:21:17;;;;;;;47.78;18.77;;;;;;;2.38;76.71;102406.44;5026774;28;20100;-46
2022/03/06 00:23:43;;;;;;;41.97;16.83;;;;;;;2.38;77.32;102402.91;5014436;28;20021;-46
2022/03/06 00:26:08;;;;;;;46.78;18.05;;;;;;;2.39;77.36;102405.47;5024764;28;20068;-47
2022/03/06 00:28:34;;;;;;;42.38;17.52;;;;;;;2.36;77.11;102400.34;5033088;28;20481;-45
2022/03/06 00:30:59;;;;;;;48.10;17.42;;;;;;;2.34;77.74;102410.22;5034043;28;20036;-46
2022/03/06 00:33:24;;;;;;;47.22;18.02;;;;;;;2.29;77.52;102412.28;5033223;28;20023;-45
2022/03/06 00:35:50;;;;;;;46.55;17.95;;;;;;;2.29;77.86;102412.28;5032559;28;20036;-45
2022/03/06 00:38:15;;;;;;;45.00;18.48;;;;;;;2.34;77.23;102415.53;5021864;28;20072;-45
2022/03/06 00:40:42;;;;;;;47.38;17.58;;;;;;;2.32;77.07;102416.56;5019606;28;20454;-45
2022/03/06 00:43:07;;;;;;;45.78;18.02;;;;;;;2.28;77.47;102420.34;5033545;28;20030;-49
2022/03/06 00:45:33;;;;;;;38.60;16.90;;;;;;;2.28;77.65;102415.88;5023753;28;20107;-46
2022/03/06 00:47:58;;;;;;;44.40;18.08;;;;;;;2.23;77.32;102419.75;5024160;28;20076;-47
2022/03/06 00:50:24;;;;;;;51.63;17.60;;;;;;;2.17;77.61;102420.97;5021736;28;20434;-46
2022/03/06 00:52:49;;;;;;;48.88;17.40;;;;;;;2.16;77.90;102421.91;5032994;28;20030;-45
2022/03/06 00:55:14;;;;;;;47.83;16.63;;;;;;;2.16;78.04;102430.75;5032867;28;20349;-45
2022/03/06 00:57:40;;;;;;;41.58;17.88;;;;;;;2.12;77.81;102431.84;5028740;28;20375;-45
2022/03/06 01:00:06;;;;;;;40.63;17.60;;;;;;;2.08;78.27;102437.41;5012595;28;20105;-44
2022/03/06 01:02:32;;;;;;;45.55;17.63;;;;;;;2.08;78.05;102446.25;5020480;28;20022;-45
2022/03/06 01:04:57;;;;;;;40.53;16.95;;;;;;;2.09;77.90;102440.00;5032373;28;20090;-46
2022/03/06 01:07:22;;;;;;;38.20;16.50;;;;;;;2.10;77.79;102446.16;5032814;28;20096;-47
2022/03/06 01:09:48;;;;;;;41.67;17.10;;;;;;;2.09;78.16;102447.97;5023318;28;20025;-46
2022/03/06 01:12:13;;;;;;;43.25;17.52;;;;;;;2.11;78.26;102451.41;5036212;28;20025;-47
2022/03/06 01:14:38;;;;;;;41.47;17.38;;;;;;;2.03;78.03;102448.31;5043274;28;20025;-44
2022/03/06 01:17:04;;;;;;;36.70;17.25;;;;;;;2.07;78.23;102449.00;5033136;28;20481;-47
2022/03/06 01:19:30;;;;;;;41.10;17.13;;;;;;;2.05;77.64;102450.88;5021137;28;20401;-45
2022/03/06 01:21:55;;;;;;;40.63;17.70;;;;;;;2.02;78.34;102451.91;5013132;28;20061;-47
2022/03/06 01:24:20;;;;;;;39.55;17.52;;;;;;;1.94;78.44;102460.28;5029451;28;20025;-48
2022/03/06 01:26:46;;;;;;;41.85;17.35;;;;;;;1.88;78.49;102463.31;5022986;28;20032;-47
2022/03/06 01:29:11;;;;;;;43.63;18.20;;;;;;;1.93;79.03;102455.09;5023163;28;20365;-48
2022/03/06 01:31:37;;;;;;;40.20;17.38;;;;;;;1.85;78.26;102460.81;5021895;28;20478;-45
2022/03/06 01:34:03;;;;;;;36.53;17.17;;;;;;;1.86;78.61;102465.19;5023422;28;20030;-46
2022/03/06 01:36:30;;;;;;;38.20;17.38;;;;;;;1.82;79.04;102468.97;5030750;28;20064;-48
2022/03/06 01:38:55;;;;;;;43.00;17.40;;;;;;;1.80;79.00;102462.03;5023003;28;20022;-46
2022/03/06 01:41:21;;;;;;;42.92;18.92;;;;;;;1.78;79.46;102470.06;5027149;28;20521;-45
2022/03/06 01:43:46;;;;;;;44.60;18.50;;;;;;;1.82;79.33;102476.03;5021885;28;20502;-46
2022/03/06 01:46:13;;;;;;;35.47;17.83;;;;;;;1.80;79.07;102468.19;5023552;28;20049;-45
2022/03/06 01:48:38;;;;;;;40.00;19.42;;;;;;;1.79;79.43;102469.13;5025387;28;20371;-46
2022/03/06 01:51:03;;;;;;;43.05;18.67;;;;;;;1.71;79.33;102468.69;5016454;28;20111;-47
2022/03/06 01:53:29;;;;;;;45.05;18.98;;;;;;;1.73;79.74;102472.13;5012645;28;20029;-47
2022/03/06 01:55:54;;;;;;;37.60;17.73;;;;;;;1.73;79.58;102465.00;5017130;28;20500;-46
2022/03/06 01:58:20;;;;;;;42.08;18.83;;;;;;;1.76;79.64;102471.94;5019710;28;20029;-45
2022/03/06 02:00:48;;;;;;;40.60;19.33;;;;;;;1.74;79.63;102469.38;5027247;28;20033;-46
2022/03/06 02:03:14;;;;;;;;;;;;;;;1.74;79.39;102469.38;5025915;28;20132;-47
2022/03/06 02:05:40;;;;;;;40.92;19.38;;;;;;;1.76;79.33;102477.25;5013613;28;19967;-46
2022/03/06 02:08:06;;;;;;;39.53;19.30;;;;;;;1.70;80.07;102469.63;5023219;28;20026;-46
2022/03/06 02:10:32;;;;;;;42.35;20.30;;;;;;;1.71;80.11;102471.34;5025051;28;20069;-48
2022/03/06 02:12:58;;;;;;;43.30;19.95;;;;;;;1.67;80.15;102467.16;5026840;28;20040;-47
2022/03/06 02:15:23;;;;;;;42.67;21.33;;;;;;;1.70;80.30;102466.97;5023130;28;20456;-49
2022/03/06 02:17:49;;;;;;;42.30;20.02;;;;;;;1.76;79.56;102466.63;5015863;28;20036;-46
2022/03/06 02:20:17;;;;;;;41.47;19.45;;;;;;;1.79;79.81;102462.94;5019381;28;20068;-45
2022/03/06 02:22:46;;;;;;;47.33;20.35;;;;;;;1.71;79.64;102468.69;5020707;28;20032;-46
2022/03/06 02:25:18;;;;;;;43.28;20.92;;;;;;;1.73;79.76;102474.78;5017773;28;20037;-47
2022/03/06 02:27:43;;;;;;;44.00;20.75;;;;;;;1.83;80.23;102473.31;5022686;28;20038;-46
2022/03/06 02:30:11;;;;;;;43.53;20.58;;;;;;;1.79;79.84;102473.56;5021259;28;20029;-47
2022/03/06 02:32:38;;;;;;;40.95;19.58;;;;;;;1.85;79.83;102471.44;5015215;28;20125;-46
2022/03/06 02:35:04;;;;;;;41.53;19.90;;;;;;;1.87;79.63;102474.88;5022730;28;20132;-47
2022/03/06 02:37:29;;;;;;;46.50;22.63;;;;;;;1.87;79.86;102469.56;5029230;28;20064;-47
2022/03/06 02:39:55;;;;;;;42.58;21.15;;;;;;;1.91;79.53;102473.75;5017395;28;20171;-46
2022/03/06 02:42:28;;;;;;;41.30;20.52;;;;;;;1.99;79.25;102475.97;5020960;28;20095;-45
2022/03/06 02:44:54;;;;;;;42.05;20.75;;;;;;;2.06;79.54;102468.53;5029511;28;20029;-49
2022/03/06 02:47:20;;;;;;;39.22;20.70;;;;;;;2.13;79.27;102476.06;5024148;28;20035;-46
2022/03/06 02:49:45;;;;;;;41.38;21.05;;;;;;;2.16;79.06;102473.25;5017752;28;20082;-46
2022/03/06 02:52:11;;;;;;;42.05;20.00;;;;;;;2.22;78.97;102474.69;5013021;28;20461;-46
2022/03/06 02:54:36;;;;;;;38.90;20.65;;;;;;;2.24;78.07;102472.81;5018556;28;20052;-45
2022/03/06 02:57:06;;;;;;;40.58;20.50;;;;;;;2.25;78.23;102479.81;5014923;28;20021;-47
2022/03/06 02:59:31;;;;;;;40.78;20.80;;;;;;;2.32;78.64;102483.84;5019934;28;20448;-45
2022/03/06 03:01:57;;;;;;;37.58;20.00;;;;;;;2.31;78.42;102482.13;5026003;28;20053;-47
2022/03/06 03:04:22;;;;;;;40.10;20.55;;;;;;;2.30;78.23;102483.06;5022043;28;20469;-46
2022/03/06 03:06:51;;;;;;;38.53;20.50;;;;;;;2.35;77.93;102485.47;5023042;28;20033;-47
2022/03/06 03:09:19;;;;;;;40.13;20.90;;;;;;;2.35;77.74;102485.47;5018815;28;20040;-46
2022/03/06 03:11:46;;;;;;;;;;;;;;;2.37;77.95;102487.09;5018549;28;20026;-45
2022/03/06 03:14:12;;;;;;;37.03;19.67;;;;;;;2.45;77.42;102497.28;5014948;28;19921;-47
2022/03/06 03:16:37;;;;;;;41.17;19.58;;;;;;;2.51;76.54;102490.75;5027335;28;20045;-46
2022/03/06 03:19:02;;;;;;;36.22;19.50;;;;;;;2.50;76.58;102489.91;5023924;28;20029;-45
2022/03/06 03:21:28;;;;;;;33.97;19.92;;;;;;;2.50;76.76;102489.03;5024529;28;20042;-47
2022/03/06 03:23:54;;;;;;;35.92;20.13;;;;;;;2.47;76.91;102497.19;5020816;28;20026;-47
2022/03/06 03:26:19;;;;;;;35.67;19.27;;;;;;;2.42;76.24;102497.44;5022256;28;20057;-45
2022/03/06 03:28:45;;;;;;;33.58;19.13;;;;;;;2.47;76.14;102499.84;5027443;28;20136;-47
2022/03/06 03:31:10;;;;;;;35.90;19.60;;;;;;;2.49;76.52;102497.94;5030934;28;20112;-45
2022/03/06 03:33:35;;;;;;;37.47;19.98;;;;;;;2.39;75.69;102502.94;5022594;28;20087;-44
2022/03/06 03:36:02;;;;;;;33.70;18.77;;;;;;;2.40;75.72;102494.88;5026450;28;20108;-47
2022/03/06 03:38:27;;;;;;;34.55;19.25;;;;;;;2.33;76.35;102496.16;5015802;28;20029;-46
2022/03/06 03:40:53;;;;;;;38.05;19.23;;;;;;;2.37;75.20;102504.81;5018108;28;20041;-47
2022/03/06 03:43:18;;;;;;;29.85;18.60;;;;;;;2.32;75.73;102501.59;5017938;28;20064;-46
2022/03/06 03:45:44;;;;;;;39.08;20.40;;;;;;;2.26;75.71;102505.44;5029281;28;20029;-46
2022/03/06 03:48:09;;;;;;;33.90;18.73;;;;;;;2.18;76.17;102507.66;5029022;28;20104;-45
2022/03/06 03:50:34;;;;;;;32.72;19.00;;;;;;;2.15;76.29;102510.50;5029487;28;20434;-47
2022/03/06 03:53:00;;;;;;;37.42;20.08;;;;;;;2.12;76.71;102513.31;5019976;28;20037;-47
2022/03/06 03:55:25;;;;;;;30.67;19.10;;;;;;;2.12;76.65;102503.56;5021331;28;20034;-48
2022/03/06 03:57:50;;;;;;;33.20;19.00;;;;;;;2.11;77.01;102514.28;5030284;28;20026;-45
2022/03/06 04:00:16;;;;;;;33.80;18.63;;;;;;;2.18;76.97;102502.34;5015417;28;20110;-47
2022/03/06 04:02:41;;;;;;;40.33;20.15;;;;;;;2.16;76.72;102502.47;5025953;28;20025;-46
2022/03/06 04:05:07;;;;;;;30.92;18.52;;;;;;;2.09;76.62;102510.84;5025780;28;20029;-47
2022/03/06 04:07:32;;;;;;;31.40;18.35;;;;;;;2.00;77.12;102506.88;5015645;28;20080;-47
2022/03/06 04:09:58;;;;;;;33.20;18.27;;;;;;;2.03;76.98;102505.88;5016726;28;20820;-45
2022/03/06 04:12:23;;;;;;;37.30;20.17;;;;;;;1.97;77.48;102505.28;5027905;28;20040;-47
2022/03/06 04:14:48;;;;;;;35.17;18.85;;;;;;;1.86;77.10;102499.69;5023151;28;20030;-45
2022/03/06 04:17:14;;;;;;;32.10;19.67;;;;;;;1.85;77.29;102515.72;5016959;28;20385;-45
2022/03/06 04:19:39;;;;;;;35.45;18.73;;;;;;;1.78;77.67;102507.22;5023575;28;20026;-45
2022/03/06 04:22:04;;;;;;;37.78;18.95;;;;;;;1.75;77.99;102508.25;5029652;28;20033;-46
2022/03/06 04:24:30;;;;;;;33.83;20.10;;;;;;;1.73;77.98;102515.44;5034123;28;20029;-47
2022/03/06 04:26:55;;;;;;;32.85;19.70;;;;;;;1.68;78.08;102511.31;5020047;28;20013;-46
2022/03/06 04:29:21;;;;;;;34.83;19.88;;;;;;;1.64;78.24;102515.94;5013713;28;20037;-47
2022/03/06 04:31:47;;;;;;;36.42;19.27;;;;;;;1.62;78.45;102507.22;5021389;28;20036;-44
2022/03/06 04:34:12;;;;;;;39.45;20.13;;;;;;;1.60;78.12;102513.53;5014020;28;20032;-46
2022/03/06 04:36:37;;;;;;;36.22;20.30;;;;;;;1.58;78.49;102520.72;5022604;28;20036;-46
2022/03/06 04:39:04;;;;;;;41.17;20.58;;;;;;;1.54;78.34;102531.50;5027153;28;20120;-46
2022/03/06 04:41:29;;;;;;;31.67;18.83;;;;;;;1.51;78.08;102523.72;5032088;28;20033;-46
2022/03/06 04:43:55;;;;;;;34.45;19.67;;;;;;;1.48;78.16;102530.97;5014538;28;20061;-47
2022/03/06 04:46:20;;;;;;;32.90;20.10;;;;;;;1.49;78.22;102536.19;5023971;28;20568;-44
2022/03/06 04:48:46;;;;;;;36.60;19.85;;;;;;;1.50;78.37;102534.38;5023805;28;20025;-44
2022/03/06 04:51:11;;;;;;;34.33;19.50;;;;;;;1.43;78.61;102539.19;5023896;28;20036;-46
2022/03/06 04:53:36;;;;;;;36.45;19.95;;;;;;;1.45;77.99;102547.91;5018343;28;20108;-46
2022/03/06 04:56:03;;;;;;;33.28;19.13;;;;;;;1.43;77.77;102544.47;5014343;28;20030;-46
2022/03/06 04:58:28;;;;;;;31.38;20.05;;;;;;;1.42;78.26;102548.09;5021607;28;20083;-47
2022/03/06 05:00:53;;;;;;;37.55;19.25;;;;;;;1.42;77.84;102550.75;5017866;28;20034;-46
2022/03/06 05:03:19;;;;;;;32.17;18.83;;;;;;;1.38;78.10;102557.13;5017989;28;20033;-46
2022/03/06 05:05:44;;;;;;;34.58;19.73;;;;;;;1.41;77.95;102558.78;5027825;28;20029;-47
2022/03/06 05:08:09;;;;;;;34.95;19.58;;;;;;;1.32;77.86;102554.81;5030778;28;20033;-44
2022/03/06 05:10:36;;;;;;;36.47;19.55;;;;;;;1.33;77.90;102559.16;5022077;28;20022;-45
2022/03/06 05:13:01;;;;;;;32.88;18.77;;;;;;;1.33;78.07;102558.31;5017912;28;20048;-48
2022/03/06 05:15:27;;;;;;;35.08;19.73;;;;;;;1.27;77.73;102564.78;5025432;28;20033;-46
2022/03/06 05:17:52;;;;;;;35.70;18.83;;;;;;;1.26;78.04;102566.59;5020991;28;20180;-46
2022/03/06 05:20:17;;;;;;;32.45;18.48;;;;;;;1.25;77.95;102558.72;5021077;28;20120;-48
2022/03/06 05:22:43;;;;;;;32.10;18.35;;;;;;;1.19;77.96;102561.69;5023979;28;20152;-47
2022/03/06 05:25:09;;;;;;;34.17;18.88;;;;;;;1.07;78.13;102558.69;5023185;28;20426;-47
2022/03/06 05:27:35;;;;;;;31.77;18.15;;;;;;;1.09;78.50;102562.13;5027694;28;20029;-47
2022/03/06 05:30:00;;;;;;;30.45;17.65;;;;;;;1.09;78.41;102566.59;5022259;28;20548;-46
2022/03/06 05:32:25;;;;;;;29.33;17.25;;;;;;;1.10;77.65;102566.50;5029286;28;20038;-46
2022/03/06 05:34:51;;;;;;;28.67;17.25;;;;;;;1.07;78.09;102569.31;5024557;28;20061;-47
2022/03/06 05:37:16;;;;;;;30.17;17.02;;;;;;;1.10;77.26;102570.94;5027702;28;20024;-45
2022/03/06 05:39:42;;;;;;;46.65;17.33;;;;;;;1.10;77.67;102574.44;5033195;28;20029;-47
2022/03/06 05:42:07;;;;;;;29.15;15.73;;;;;;;1.02;77.85;102576.63;5025275;28;20113;-45
2022/03/06 05:44:32;;;;;;;30.58;16.15;;;;;;;0.99;77.38;102582.09;5025309;28;20041;-47
2022/03/06 05:46:58;;;;;;;29.13;16.08;;;;;;;1.03;77.71;102583.69;5015455;28;20045;-45
2022/03/06 05:49:23;;;;;;;26.73;15.55;;;;;;;0.95;77.52;102588.50;5017803;28;20061;-46
2022/03/06 05:51:49;;;;;;;26.80;16.05;;;;;;;0.94;77.76;102583.25;5020152;28;20033;-47
2022/03/06 05:54:14;;;;;;;27.70;15.93;;;;;;;0.93;77.38;102587.72;5023264;28;20104;-46
2022/03/06 05:56:39;;;;;;;25.67;15.25;;;;;;;0.92;77.31;102595.72;5026153;28;20118;-47
2022/03/06 05:59:05;;;;;;;28.95;15.27;;;;;;;0.90;77.47;102597.63;5023663;28;20076;-46
2022/03/06 06:01:31;;;;;;;24.17;14.75;;;;;;;0.93;77.49;102608.91;5027809;28;20474;-46
2022/03/06 06:03:57;;;;;;;24.67;14.70;;;;;;;0.93;77.32;102608.91;5028196;28;20021;-47
2022/03/06 06:06:24;;;;;;;26.27;15.25;;;;;;;0.97;77.21;102609.63;5030402;28;20032;-47
2022/03/06 06:08:50;;;;;;;25.08;14.70;;;;;;;1.00;76.71;102613.00;5024288;28;20025;-46
2022/03/06 06:11:15;;;;;;;26.38;15.00;;;;;;;0.97;77.30;102614.91;5023889;28;20036;-46
2022/03/06 06:13:40;;;;;;;26.65;15.40;;;;;;;0.92;77.10;102625.75;5026167;28;20022;-46
2022/03/06 06:16:06;;;;;;;25.83;15.75;;;;;;;0.86;77.35;102626.06;5024573;28;20072;-47
2022/03/06 06:18:31;;;;;;;27.25;15.23;;;;;;;0.92;77.22;102625.75;5026950;28;20030;-47
2022/03/06 06:20:57;;;;;;;29.30;16.17;;;;;;;0.98;77.04;102630.75;5020214;28;20068;-47
2022/03/06 06:23:23;;;;;;;32.30;16.25;;;;;;;0.95;76.94;102628.28;5023326;28;20458;-48
2022/03/06 06:25:48;;;;;;;25.65;15.13;;;;;;;0.96;76.73;102629.13;5030868;28;20036;-45
2022/03/06 06:28:13;;;;;;;26.48;15.60;;;;;;;1.00;76.84;102633.31;5026370;28;20044;-47
2022/03/06 06:30:39;;;;;;;32.22;17.10;;;;;;;1.01;76.72;102637.72;5030522;28;20497;-45
2022/03/06 06:33:04;;;;;;;25.58;15.07;;;;;;;0.99;76.97;102645.72;5022775;28;20462;-47
2022/03/06 06:35:29;;;;;;;23.27;14.52;;;;;;;1.06;76.38;102639.19;5029862;28;20470;-48
2022/03/06 06:37:55;;;;;;;34.20;16.05;;;;;;;1.13;76.35;102644.19;5029825;28;20150;-46
2022/03/06 06:40:20;;;;;;;27.67;14.15;;;;;;;1.10;76.40;102646.03;5026404;28;20250;-48
2022/03/06 06:42:45;;;;;;;26.10;14.40;;;;;;;1.21;76.41;102637.59;5020242;28;20040;-44
2022/03/06 06:45:11;;;;;;;27.45;15.95;;;;;;;1.45;75.33;102640.78;5026492;28;20258;-47
2022/03/06 06:47:36;;;;;;;26.48;15.05;;;;;;;1.75;74.14;102640.13;5018243;28;20521;-46
2022/03/06 06:50:03;;;;;;;24.40;15.48;;;;;;;2.06;73.37;102641.16;5028568;28;20050;-47
2022/03/06 06:52:28;;;;;;;25.80;14.40;;;;;;;2.34;71.70;102638.72;5026899;28;20033;-47
2022/03/06 06:54:54;;;;;;;24.20;14.40;;;;;;;2.75;70.19;102653.28;5020470;28;20433;-47
2022/03/06 06:57:20;;;;;;;24.55;13.43;;;;;;;3.00;68.69;102664.25;5020103;28;20113;-44
2022/03/06 06:59:45;;;;;;;23.13;13.55;;;;;;;3.12;68.25;102665.34;5022436;28;20021;-47
2022/03/06 07:02:10;;;;;;;21.42;13.25;;;;;;;3.14;67.90;102675.91;5018866;28;20036;-47
2022/03/06 07:04:36;;;;;;;20.73;12.88;;;;;;;3.15;67.32;102673.16;5020900;28;20127;-48
2022/03/06 07:07:01;;;;;;;25.73;13.13;;;;;;;3.25;67.41;102676.13;5028505;28;20488;-47
2022/03/06 07:09:26;;;;;;;22.60;12.50;;;;;;;3.29;66.78;102673.22;5026167;28;20044;-46
2022/03/06 07:11:52;;;;;;;23.83;12.23;;;;;;;3.32;66.42;102681.94;5017498;28;20156;-46
2022/03/06 07:14:17;;;;;;;19.92;12.65;;;;;;;3.45;66.18;102686.47;5025461;28;20333;-47
2022/03/06 07:16:45;;;;;;;18.45;11.10;;;;;;;3.67;66.45;102680.72;5018189;28;20041;-48
2022/03/06 07:19:10;;;;;;;19.05;11.30;;;;;;;3.91;64.79;102689.03;5018318;28;20464;-47
2022/03/06 07:21:37;;;;;;;16.30;9.95;;;;;;;4.07;64.31;102683.63;5017839;28;20029;-46
2022/03/06 07:24:03;;;;;;;21.45;10.98;;;;;;;4.08;63.77;102693.38;5025897;28;20029;-47
2022/03/06 07:26:29;;;;;;;18.67;11.13;;;;;;;4.11;64.05;102698.50;5027323;28;20112;-45
2022/03/06 07:28:54;;;;;;;16.63;10.75;;;;;;;4.09;63.75;102705.72;5019277;28;20116;-48
2022/03/06 07:31:19;;;;;;;18.60;11.02;;;;;;;4.25;64.19;102699.44;5015944;28;20022;-47
2022/03/06 07:33:45;;;;;;;19.60;10.60;;;;;;;4.43;62.97;102710.78;5022018;28;20037;-47
2022/03/06 07:36:11;;;;;;;15.20;9.48;;;;;;;4.45;62.56;102706.19;5023637;28;20025;-48
2022/03/06 07:38:36;;;;;;;15.82;9.75;;;;;;;4.69;62.82;102714.47;5019280;28;20080;-47
2022/03/06 07:41:01;;;;;;;15.38;9.40;;;;;;;5.05;61.36;102719.22;5023196;28;20022;-48
2022/03/06 07:43:26;;;;;;;15.38;8.57;;;;;;;5.50;59.90;102709.13;5030216;28;20033;-46
2022/03/06 07:45:52;;;;;;;15.40;8.65;;;;;;;5.66;58.91;102719.66;5023765;28;20037;-45
2022/03/06 07:48:17;;;;;;;15.88;8.60;;;;;;;6.05;58.43;102715.25;5029371;28;20018;-44
2022/03/06 07:50:42;;;;;;;14.00;8.57;;;;;;;6.65;56.76;102724.41;5028098;28;20519;-47
2022/03/06 07:53:08;;;;;;;15.30;8.55;;;;;;;7.35;54.56;102721.91;5019191;28;20034;-50
2022/03/06 07:55:34;;;;;;;11.48;7.57;;;;;;;8.13;51.68;102718.59;5032781;28;20040;-48
2022/03/06 07:57:59;;;;;;;10.68;7.05;;;;;;;8.75;50.31;102729.88;5026498;28;20543;-46
2022/03/06 08:00:24;;;;;;;11.57;6.95;;;;;;;9.22;48.46;102719.78;5029569;28;20025;-45
2022/03/06 08:02:50;;;;;;;12.40;6.95;;;;;;;9.63;46.94;102726.19;5018449;28;20113;-48
2022/03/06 08:05:15;;;;;;;11.48;6.60;;;;;;;9.97;46.23;102728.69;5022337;28;20014;-46
2022/03/06 08:07:41;;;;;;;11.05;6.18;;;;;;;10.43;44.45;102738.22;5027242;28;20105;-45
2022/03/06 08:10:08;;;;;;;10.02;6.10;;;;;;;10.82;44.08;102732.94;5026255;28;20029;-49
2022/03/06 08:12:33;;;;;;;15.23;6.03;;;;;;;10.94;43.04;102735.41;5022239;28;20033;-49
2022/03/06 08:14:59;;;;;;;9.68;6.47;;;;;;;10.91;42.85;102743.75;5034171;28;20276;-47
2022/03/06 08:17:24;;;;;;;13.77;5.93;;;;;;;11.06;42.40;102741.53;5033787;28;20021;-48
2022/03/06 08:19:49;;;;;;;9.30;5.75;;;;;;;10.88;42.13;102740.50;5025002;28;20029;-47
2022/03/06 08:22:15;;;;;;;9.48;5.88;;;;;;;10.52;42.71;102734.69;5021579;28;20029;-47
2022/03/06 08:24:41;;;;;;;10.48;5.97;;;;;;;10.58;42.85;102747.59;5029888;28;20034;-46
2022/03/06 08:27:06;;;;;;;11.13;5.72;;;;;;;10.90;42.06;102743.88;5031681;28;20425;-47
2022/03/06 08:29:32;;;;;;;10.88;6.10;;;;;;;11.34;41.08;102752.50;5022755;28;20109;-47
2022/03/06 08:31:57;;;;;;;11.57;5.50;;;;;;;11.52;40.24;102748.09;5016353;28;20029;-47
2022/03/06 08:34:22;;;;;;;7.72;5.13;;;;;;;11.49;40.52;102761.88;5030151;28;20147;-47
2022/03/06 08:36:48;;;;;;;15.10;5.75;;;;;;;11.35;40.40;102746.13;5026611;28;20041;-46
2022/03/06 08:39:13;;;;;;;10.60;5.57;;;;;;;11.18;40.61;102751.19;5038038;28;20029;-47
2022/03/06 08:41:38;;;;;;;11.07;5.32;;;;;;;11.35;40.82;102748.81;5020271;28;20033;-47
2022/03/06 08:44:04;;;;;;;11.35;5.38;;;;;;;11.30;39.88;102764.56;5025101;28;20064;-49
2022/03/06 08:46:29;;;;;;;6.97;5.35;;;;;;;11.16;40.21;102741.53;5026820;28;20084;-48
2022/03/06 08:48:55;;;;;;;10.60;5.85;;;;;;;10.64;40.96;102746.25;5026313;28;20036;-45
2022/03/06 08:51:20;;;;;;;8.85;5.50;;;;;;;10.31;42.01;102762.50;5024105;28;20041;-48
2022/03/06 08:53:45;;;;;;;11.27;5.88;;;;;;;10.15;42.45;102758.56;5028444;28;20065;-48
2022/03/06 08:56:11;;;;;;;10.02;5.70;;;;;;;9.89;43.17;102767.00;5025155;28;20021;-47
2022/03/06 08:58:36;;;;;;;10.25;5.82;;;;;;;10.13;43.29;102764.06;5031137;28;20086;-47
2022/03/06 09:01:01;;;;;;;9.20;5.38;;;;;;;10.13;42.42;102764.06;5030963;28;20129;-46
2022/03/06 09:03:28;;;;;;;11.55;5.35;;;;;;;9.74;43.45;102768.31;5027638;28;20112;-47
2022/03/06 09:05:53;;;;;;;12.65;5.28;;;;;;;10.07;42.82;102764.59;5030751;28;20037;-47
2022/03/06 09:08:18;;;;;;;10.18;5.68;;;;;;;10.24;42.42;102766.69;5023739;28;20064;-45
2022/03/06 09:10:44;;;;;;;8.57;5.55;;;;;;;10.37;41.54;102758.41;5025685;28;20079;-47
2022/03/06 09:13:09;;;;;;;9.40;5.80;;;;;;;10.51;41.63;102771.53;5027000;28;20104;-48
2022/03/06 09:15:36;;;;;;;9.23;5.15;;;;;;;10.36;41.67;102763.94;5030156;28;20025;-45
2022/03/06 09:18:02;;;;;;;9.88;5.57;;;;;;;10.01;42.27;102773.19;5022963;28;20436;-47
2022/03/06 09:20:27;;;;;;;8.25;5.28;;;;;;;10.08;42.05;102771.66;5031429;28;20040;-47
2022/03/06 09:22:53;;;;;;;10.48;5.47;;;;;;;9.98;41.99;102771.63;5032837;28;20025;-48
2022/03/06 09:25:18;;;;;;;10.52;5.53;;;;;;;10.04;42.07;102765.72;5028394;28;20029;-46
2022/03/06 09:27:44;;;;;;;10.27;5.10;;;;;;;9.97;42.74;102769.06;5030088;28;20120;-47
2022/03/06 09:30:10;;;;;;;13.23;5.35;;;;;;;10.15;41.83;102778.25;5023273;28;20037;-46
2022/03/06 09:32:36;;;;;;;9.15;5.10;;;;;;;9.94;42.19;102769.31;5023294;28;20482;-47
2022/03/06 09:35:02;;;;;;;9.23;5.00;;;;;;;9.65;42.68;102776.16;5021385;28;20108;-47
2022/03/06 09:37:27;;;;;;;11.23;5.05;;;;;;;9.42;42.59;102770.00;5021984;28;20040;-44
2022/03/06 09:39:53;;;;;;;9.18;5.15;;;;;;;9.26;42.77;102768.72;5021920;28;20405;-46
2022/03/06 09:42:21;;;;;;;8.40;5.25;;;;;;;9.06;43.99;102768.53;5019889;28;20029;-48
2022/03/06 09:44:48;;;;;;;7.93;4.97;;;;;;;9.25;43.55;102770.56;5019635;28;20022;-48
2022/03/06 09:47:14;;;;;;;10.48;4.97;;;;;;;9.19;43.49;102757.66;5025487;28;20032;-47
2022/03/06 09:49:45;;;;;;;11.35;4.75;;;;;;;9.22;42.92;102765.44;5018028;28;20096;-47
2022/03/06 09:52:11;;;;;;;9.85;5.07;;;;;;;9.43;43.75;102765.50;5017447;28;20458;-46
2022/03/06 09:54:36;;;;;;;13.43;5.07;;;;;;;9.54;42.50;102767.31;5024240;28;20041;-47
2022/03/06 09:57:02;;;;;;;12.00;5.32;;;;;;;8.70;43.54;102767.81;5017762;28;20061;-50
2022/03/06 09:59:30;;;;;;;18.75;5.30;;;;;;;8.68;44.38;102763.56;5021519;28;20036;-47
2022/03/06 10:01:58;;;;;;;;;;;;;;;8.89;43.63;102761.81;5024794;28;20033;-47
2022/03/06 10:04:31;;;;;;;12.25;5.00;;;;;;;9.11;42.96;102758.28;5023184;28;20315;-49
2022/03/06 10:06:58;;;;;;;11.27;5.38;;;;;;;9.26;43.06;102758.81;5022884;28;20038;-46
2022/03/06 10:09:23;;;;;;;11.07;5.15;;;;;;;9.28;42.05;102772.16;5022064;28;20034;-46
2022/03/06 10:11:51;;;;;;;13.13;5.35;;;;;;;8.96;43.10;102768.41;5020163;28;20108;-49
2022/03/06 10:14:33;;;;;;;11.20;5.57;;;;;;;8.54;42.60;102765.50;5020492;28;20040;-48
2022/03/06 10:17:12;;;;;;;12.23;5.38;;;;;;;8.71;43.06;102772.19;5026938;28;20022;-48
2022/03/06 10:19:48;;;;;;;9.85;5.72;;;;;;;8.94;42.60;102774.88;5022597;28;20030;-47
2022/03/06 10:22:13;;;;;;;7.70;5.20;;;;;;;9.18;41.66;102763.97;5019961;28;20037;-50
2022/03/06 10:24:46;;;;;;;10.30;5.20;;;;;;;9.16;42.08;102768.63;5016406;28;20097;-48
2022/03/06 10:27:12;;;;;;;18.77;5.68;;;;;;;9.34;41.68;102782.38;5028708;28;20187;-48
2022/03/06 10:29:37;;;;;;;14.95;5.20;;;;;;;9.28;41.82;102778.38;5021695;28;20501;-49
2022/03/06 10:32:04;;;;;;;10.77;5.50;;;;;;;9.48;41.71;102787.47;5022556;28;20461;-48
2022/03/06 10:34:35;;;;;;;13.73;5.70;;;;;;;9.19;41.25;102784.50;5022557;28;20057;-46
2022/03/06 10:37:01;;;;;;;14.20;5.38;;;;;;;8.57;43.29;102797.47;5026926;28;20025;-48
2022/03/06 10:39:27;;;;;;;16.13;6.03;;;;;;;8.29;43.43;102808.59;5023262;28;20065;-46
2022/03/06 10:41:56;;;;;;;9.15;5.53;;;;;;;8.27;43.36;102797.16;5026218;28;20065;-48
2022/03/06 10:44:23;;;;;;;10.85;5.15;;;;;;;8.93;43.34;102795.53;5024255;28;20374;-47
2022/03/06 10:47:00;;;;;;;12.57;5.45;;;;;;;9.08;42.57;102795.25;5028695;28;20083;-47
2022/03/06 10:49:26;;;;;;;15.93;5.50;;;;;;;9.22;41.70;102790.47;5018295;28;20089;-46
2022/03/06 10:51:51;;;;;;;8.93;5.38;;;;;;;8.87;42.20;102793.31;5018382;28;20050;-46
2022/03/06 10:54:17;;;;;;;11.98;6.15;;;;;;;8.47;42.56;102799.16;5025030;28;20029;-46
2022/03/06 10:56:46;;;;;;;11.60;5.85;;;;;;;8.47;43.74;102787.56;5026955;28;20032;-47
2022/03/06 10:59:11;;;;;;;10.50;5.55;;;;;;;8.69;43.05;102782.22;5027034;28;20026;-46
2022/03/06 11:01:38;;;;;;;12.48;6.38;;;;;;;9.16;42.01;102784.72;5027925;28;20370;-47
2022/03/06 11:04:05;;;;;;;12.05;5.88;;;;;;;9.29;41.43;102785.44;5034657;28;20033;-47
2022/03/06 11:06:38;;;;;;;12.75;6.15;;;;;;;9.31;42.03;102778.09;5020344;28;20030;-46
2022/03/06 11:09:04;;;;;;;8.45;5.75;;;;;;;9.71;41.65;102790.06;5030620;28;20080;-46
2022/03/06 11:11:30;;;;;;;11.63;5.45;;;;;;;10.01;41.22;102781.28;5021141;28;20112;-46
2022/03/06 11:13:56;;;;;;;12.80;6.22;;;;;;;10.28;39.83;102784.28;5020111;28;20299;-45